Time;durP1;ratioP1;P1;durP2;ratioP2;P2;SDS_P1;SDS_P2;PMS_P1;PMS_P2;Temp;Humidity;BMP_temperature;BMP_pressure;BME280_temperature;BME280_humidity;BME280_pressure;Samples;Min_cycle;Max_cycle;Signal;HPM_P1;HPM_P2
2021/10/06 00:01:13;;;;;;;7.88;2.20;;;32.80;35.50;;;;;;5091170;28;20085;-61
2021/10/06 00:03:40;;;;;;;5.85;1.95;;;32.70;34.90;;;;;;5091395;28;20320;-65
2021/10/06 00:06:06;;;;;;;8.75;2.17;;;32.70;64.40;;;;;;5091624;28;20095;-67
2021/10/06 00:08:33;;;;;;;7.28;2.10;;;32.80;41.20;;;;;;5092111;28;20031;-65
2021/10/06 00:10:59;;;;;;;5.95;1.95;;;;;;;;;;5090919;28;20020;-66
2021/10/06 00:13:26;;;;;;;12.07;2.38;;;32.40;37.80;;;;;;5090931;28;20143;-65
2021/10/06 00:15:52;;;;;;;8.20;1.75;;;32.30;35.40;;;;;;5075797;28;20047;-64
2021/10/06 00:18:18;;;;;;;6.82;3.38;;;32.30;35.50;;;;;;5091106;28;20240;-64
2021/10/06 00:20:45;;;;;;;13.70;2.13;;;32.30;35.60;;;;;;5091034;28;20414;-63
2021/10/06 00:23:11;;;;;;;6.28;2.05;;;32.30;35.70;;;;;;5093004;28;20146;-63
2021/10/06 00:25:38;;;;;;;8.27;2.20;;;32.20;35.80;;;;;;5091419;28;20070;-63
2021/10/06 00:28:04;;;;;;;4.78;1.30;;;32.20;35.60;;;;;;5094434;28;20077;-64
2021/10/06 00:30:31;;;;;;;3.78;1.50;;;32.10;35.80;;;;;;5092724;28;20111;-61
2021/10/06 00:32:57;;;;;;;8.57;2.03;;;32.10;35.60;;;;;;5091423;28;20085;-63
2021/10/06 00:35:23;;;;;;;12.25;2.17;;;32.00;36.30;;;;;;5072706;28;20068;-62
2021/10/06 00:37:50;;;;;;;6.35;2.30;;;32.00;35.80;;;;;;5088598;28;20076;-62
2021/10/06 00:40:16;;;;;;;6.40;2.00;;;31.90;36.10;;;;;;5089356;28;20096;-66
2021/10/06 00:42:43;;;;;;;8.65;2.00;;;31.80;36.10;;;;;;5089731;28;20083;-64
2021/10/06 00:45:10;;;;;;;8.32;2.22;;;32.00;56.60;;;;;;5089203;28;20065;-63
2021/10/06 00:47:36;;;;;;;7.75;2.05;;;31.60;36.70;;;;;;5088839;28;20092;-64
2021/10/06 00:50:04;;;;;;;7.38;1.88;;;31.60;37.00;;;;;;5092035;28;20171;-63
2021/10/06 00:52:30;;;;;;;6.70;2.00;;;31.60;36.70;;;;;;5092541;28;20101;-61
2021/10/06 00:54:57;;;;;;;5.53;1.90;;;31.50;36.70;;;;;;5091476;28;20157;-64
2021/10/06 00:57:23;;;;;;;6.13;2.25;;;31.40;36.80;;;;;;5090505;28;20067;-64
2021/10/06 00:59:49;;;;;;;10.38;2.58;;;31.20;36.90;;;;;;5101199;28;20073;-61
2021/10/06 01:02:16;;;;;;;7.22;2.55;;;31.20;37.30;;;;;;5090999;28;20068;-62
2021/10/06 01:04:42;;;;;;;6.45;2.05;;;31.10;37.10;;;;;;5091162;28;20453;-63
2021/10/06 01:07:09;;;;;;;8.18;2.50;;;31.00;37.10;;;;;;5091597;28;20076;-63
2021/10/06 01:09:37;;;;;;;7.97;2.10;;;31.00;37.40;;;;;;5091247;28;20092;-64
2021/10/06 01:12:04;;;;;;;7.78;1.83;;;30.90;37.10;;;;;;5092330;28;20072;-64
2021/10/06 01:14:30;;;;;;;5.40;2.35;;;30.80;37.50;;;;;;5090701;28;20083;-61
2021/10/06 01:16:57;;;;;;;6.97;2.15;;;30.80;37.50;;;;;;5090302;28;20122;-63
2021/10/06 01:19:29;;;;;;;7.88;2.72;;;30.80;37.70;;;;;;5091799;28;20141;-66
2021/10/06 01:21:56;;;;;;;4.57;2.28;;;30.70;37.70;;;;;;5092424;28;20084;-65
2021/10/06 01:24:25;;;;;;;6.38;2.35;;;30.70;37.60;;;;;;5092251;28;20069;-63
2021/10/06 01:26:51;;;;;;;7.30;2.20;;;30.60;37.90;;;;;;5091216;28;20159;-62
2021/10/06 01:29:18;;;;;;;4.13;2.55;;;30.60;37.80;;;;;;5091999;28;20116;-63
2021/10/06 01:31:46;;;;;;;11.55;3.08;;;30.60;37.60;;;;;;5091033;28;20210;-62
2021/10/06 01:34:12;;;;;;;14.35;2.83;;;30.50;38.00;;;;;;5090825;28;20072;-63
2021/10/06 01:36:39;;;;;;;14.25;2.65;;;30.50;37.60;;;;;;5090686;28;20118;-65
2021/10/06 01:39:08;;;;;;;5.65;2.40;;;30.40;38.00;;;;;;5073324;28;20101;-65
2021/10/06 01:41:36;;;;;;;13.65;2.65;;;30.40;37.80;;;;;;5090458;28;20072;-64
2021/10/06 01:44:04;;;;;;;11.50;3.08;;;30.40;37.80;;;;;;5090594;28;20437;-64
2021/10/06 01:46:30;;;;;;;10.20;2.65;;;30.40;38.00;;;;;;5090761;28;20088;-64
2021/10/06 01:48:57;;;;;;;7.13;3.00;;;30.30;37.70;;;;;;5091647;28;20073;-64
2021/10/06 01:51:26;;;;;;;9.60;2.92;;;30.30;38.00;;;;;;5090660;28;20118;-64
2021/10/06 01:53:53;;;;;;;8.25;3.17;;;30.20;38.00;;;;;;5086372;28;20156;-65
2021/10/06 01:56:19;;;;;;;10.48;3.13;;;30.20;37.90;;;;;;5090293;28;20083;-63
2021/10/06 01:58:47;;;;;;;7.97;2.80;;;30.20;37.70;;;;;;5093931;28;20122;-63
2021/10/06 02:01:13;;;;;;;7.85;2.50;;;30.20;37.90;;;;;;5089900;28;20076;-63
2021/10/06 02:03:40;;;;;;;5.63;2.88;;;30.20;37.80;;;;;;5090549;28;20077;-63
2021/10/06 02:06:06;;;;;;;8.00;2.40;;;30.20;38.10;;;;;;5090001;28;20099;-62
2021/10/06 02:08:33;;;;;;;10.18;3.10;;;30.10;38.60;;;;;;5073136;28;20121;-61
2021/10/06 02:10:59;;;;;;;18.20;4.30;;;30.10;39.30;;;;;;5089714;28;20088;-61
2021/10/06 02:13:26;;;;;;;14.38;3.40;;;30.00;39.10;;;;;;5088266;28;20437;-61
2021/10/06 02:15:52;;;;;;;11.57;3.92;;;30.00;40.00;;;;;;5088734;28;20072;-64
2021/10/06 02:18:19;;;;;;;9.90;3.92;;;29.90;41.40;;;;;;5089665;28;20113;-65
2021/10/06 02:20:46;;;;;;;9.50;3.55;;;29.90;42.00;;;;;;5089431;28;20526;-63
2021/10/06 02:23:13;;;;;;;12.10;3.50;;;29.80;42.50;;;;;;5070970;28;20075;-64
2021/10/06 02:25:40;;;;;;;16.52;3.55;;;29.70;43.00;;;;;;5090002;28;20099;-64
2021/10/06 02:28:07;;;;;;;13.27;3.25;;;29.70;43.40;;;;;;5072197;28;20080;-64
2021/10/06 02:30:34;;;;;;;12.50;3.42;;;29.60;43.70;;;;;;5089599;28;20120;-64
2021/10/06 02:33:01;;;;;;;11.23;3.42;;;29.60;44.30;;;;;;5087959;28;20100;-64
2021/10/06 02:35:27;;;;;;;14.40;3.65;;;29.60;44.50;;;;;;5090029;28;20524;-65
2021/10/06 02:37:54;;;;;;;9.38;3.88;;;29.50;44.90;;;;;;5089136;28;20076;-60
2021/10/06 02:40:21;;;;;;;9.27;2.97;;;29.50;45.00;;;;;;5088881;28;20072;-64
2021/10/06 02:42:48;;;;;;;9.70;3.75;;;29.40;45.20;;;;;;5088795;28;20092;-65
2021/10/06 02:45:18;;;;;;;7.63;3.63;;;29.40;45.20;;;;;;5088842;28;20084;-64
2021/10/06 02:47:46;;;;;;;14.77;3.53;;;29.40;45.30;;;;;;5089227;28;20076;-65
2021/10/06 02:50:15;;;;;;;10.40;3.70;;;29.30;45.50;;;;;;5089677;28;20308;-63
2021/10/06 02:52:42;;;;;;;10.52;3.67;;;29.30;45.60;;;;;;5089699;28;20075;-64
2021/10/06 02:55:09;;;;;;;8.73;3.20;;;29.20;46.00;;;;;;5089080;28;20230;-65
2021/10/06 02:57:37;;;;;;;7.90;3.10;;;29.20;45.80;;;;;;5087346;28;20126;-67
2021/10/06 03:00:07;;;;;;;11.57;3.58;;;29.20;45.90;;;;;;5088360;28;20497;-64
2021/10/06 03:02:34;;;;;;;8.57;3.17;;;29.10;46.00;;;;;;5088595;28;20083;-64
2021/10/06 03:05:00;;;;;;;11.77;3.20;;;29.00;46.10;;;;;;5088989;28;20096;-65
2021/10/06 03:07:27;;;;;;;10.38;3.85;;;29.00;45.60;;;;;;5089521;28;20212;-67
2021/10/06 03:09:53;;;;;;;10.73;3.80;;;28.90;46.10;;;;;;5096249;28;20084;-65
2021/10/06 03:12:19;;;;;;;10.05;3.65;;;28.90;46.40;;;;;;5093281;28;20582;-63
2021/10/06 03:14:46;;;;;;;8.98;3.53;;;28.90;46.50;;;;;;5070852;28;20077;-64
2021/10/06 03:17:12;;;;;;;12.23;4.20;;;28.90;46.50;;;;;;5087405;28;20121;-63
2021/10/06 03:19:38;;;;;;;7.50;3.92;;;28.90;46.70;;;;;;5089420;28;20096;-64
2021/10/06 03:22:05;;;;;;;10.02;4.05;;;28.80;46.90;;;;;;5088998;28;20068;-66
2021/10/06 03:24:31;;;;;;;11.35;3.85;;;28.80;47.00;;;;;;5088051;28;20611;-65
2021/10/06 03:26:57;;;;;;;10.90;3.80;;;28.80;47.00;;;;;;5089142;28;20579;-63
2021/10/06 03:29:24;;;;;;;12.70;4.60;;;28.80;47.30;;;;;;5091984;28;20124;-65
2021/10/06 03:31:50;;;;;;;11.10;4.65;;;28.70;47.40;;;;;;5088791;28;20500;-63
2021/10/06 03:34:17;;;;;;;11.10;4.85;;;28.70;47.40;;;;;;5087537;28;20076;-64
2021/10/06 03:36:43;;;;;;;19.45;5.28;;;28.60;47.50;;;;;;5087785;28;20065;-65
2021/10/06 03:39:09;;;;;;;9.30;4.05;;;28.60;47.60;;;;;;5070971;28;20079;-65
2021/10/06 03:41:36;;;;;;;10.40;4.55;;;28.60;47.90;;;;;;5088586;28;20077;-63
2021/10/06 03:44:02;;;;;;;9.05;4.07;;;28.50;47.60;;;;;;5088367;28;20088;-63
2021/10/06 03:46:28;;;;;;;11.25;3.97;;;28.50;47.70;;;;;;5088231;28;20088;-65
2021/10/06 03:48:55;;;;;;;11.93;3.60;;;28.50;47.90;;;;;;5087099;28;20073;-64
2021/10/06 03:51:21;;;;;;;9.05;3.58;;;28.50;47.60;;;;;;5087291;28;20092;-63
2021/10/06 03:53:48;;;;;;;13.60;3.53;;;28.40;47.90;;;;;;5088390;28;20155;-65
2021/10/06 03:56:14;;;;;;;10.18;3.70;;;28.40;48.00;;;;;;5087917;28;20125;-63
2021/10/06 03:58:41;;;;;;;12.30;3.58;;;28.40;47.90;;;;;;5087707;28;20065;-65
2021/10/06 04:01:07;;;;;;;11.32;3.72;;;28.40;48.00;;;;;;5087234;28;20087;-65
2021/10/06 04:03:34;;;;;;;13.35;4.30;;;28.30;48.10;;;;;;5088900;28;20079;-63
2021/10/06 04:06:00;;;;;;;13.00;4.15;;;28.30;48.40;;;;;;5088079;28;20068;-63
2021/10/06 04:08:26;;;;;;;16.02;3.58;;;28.30;48.40;;;;;;5088746;28;20072;-61
2021/10/06 04:10:53;;;;;;;10.52;4.05;;;28.20;48.50;;;;;;5088141;28;20910;-63
2021/10/06 04:13:20;;;;;;;12.25;4.75;;;28.20;48.70;;;;;;5088551;28;20496;-62
2021/10/06 04:15:46;;;;;;;12.02;4.53;;;28.10;48.80;;;;;;5087851;28;20076;-62
2021/10/06 04:18:13;;;;;;;12.70;4.60;;;28.10;49.00;;;;;;5088614;28;20077;-63
2021/10/06 04:20:40;;;;;;;15.25;4.32;;;28.00;49.40;;;;;;5087757;28;20098;-63
2021/10/06 04:23:06;;;;;;;14.15;4.78;;;27.90;49.70;;;;;;5088817;28;20077;-63
2021/10/06 04:25:33;;;;;;;12.50;5.28;;;27.80;50.00;;;;;;5088915;28;20102;-62
2021/10/06 04:27:59;;;;;;;11.95;4.32;;;27.80;50.40;;;;;;5072139;28;20129;-65
2021/10/06 04:30:26;;;;;;;8.55;4.22;;;27.70;50.60;;;;;;5088222;28;20624;-64
2021/10/06 04:32:52;;;;;;;9.60;4.15;;;27.70;50.60;;;;;;5089184;28;20487;-62
2021/10/06 04:35:19;;;;;;;10.45;3.83;;;27.70;50.90;;;;;;5087747;28;20171;-65
2021/10/06 04:37:45;;;;;;;10.10;3.90;;;27.60;51.20;;;;;;5089995;28;20437;-64
2021/10/06 04:40:12;;;;;;;8.75;4.50;;;27.60;51.50;;;;;;5091748;28;20435;-62
2021/10/06 04:42:38;;;;;;;11.27;4.80;;;27.60;51.40;;;;;;5075820;28;20134;-64
2021/10/06 04:45:05;;;;;;;12.18;4.90;;;27.50;51.60;;;;;;5092673;28;20142;-63
2021/10/06 04:47:32;;;;;;;11.98;4.85;;;27.50;51.80;;;;;;5091313;28;20084;-62
2021/10/06 04:49:58;;;;;;;13.77;5.45;;;27.50;51.80;;;;;;5096504;28;20133;-62
2021/10/06 04:52:25;;;;;;;19.63;8.65;;;27.50;51.70;;;;;;5095071;28;20084;-61
2021/10/06 04:54:53;;;;;;;11.77;5.50;;;27.40;51.70;;;;;;5093590;28;20591;-64
2021/10/06 04:57:20;;;;;;;19.00;5.05;;;27.50;75.30;;;;;;5091149;28;20069;-62
2021/10/06 04:59:46;;;;;;;10.65;5.00;;;27.40;52.00;;;;;;5092783;28;20096;-65
2021/10/06 05:02:13;;;;;;;11.98;5.50;;;27.40;52.20;;;;;;5074555;28;20163;-64
2021/10/06 05:04:39;;;;;;;11.60;6.20;;;27.40;52.20;;;;;;5092136;28;20118;-65
2021/10/06 05:07:06;;;;;;;18.17;6.20;;;27.30;52.20;;;;;;5073974;28;20521;-62
2021/10/06 05:09:33;;;;;;;12.27;5.25;;;27.30;52.40;;;;;;5091276;28;20077;-66
2021/10/06 05:11:59;;;;;;;17.90;5.47;;;27.20;52.50;;;;;;5065491;28;20116;-65
2021/10/06 05:14:28;;;;;;;12.85;4.30;;;27.20;53.00;;;;;;5091079;28;20064;-61
2021/10/06 05:16:55;;;;;;;9.93;4.10;;;27.20;52.90;;;;;;5090685;28;20069;-68
2021/10/06 05:19:21;;;;;;;7.05;3.70;;;27.20;53.00;;;;;;5091246;28;20564;-64
2021/10/06 05:21:48;;;;;;;10.43;4.07;;;27.20;53.20;;;;;;5091189;28;20491;-64
2021/10/06 05:24:14;;;;;;;10.82;3.95;;;27.20;53.50;;;;;;5091723;28;20449;-62
2021/10/06 05:26:41;;;;;;;9.68;4.25;;;27.00;54.80;;;;;;5074319;28;20225;-62
2021/10/06 05:29:07;;;;;;;9.40;4.32;;;26.90;55.30;;;;;;5092216;28;20084;-64
2021/10/06 05:31:34;;;;;;;9.25;4.07;;;26.80;55.60;;;;;;5091657;28;20096;-62
2021/10/06 05:34:00;;;;;;;7.45;3.88;;;26.70;55.60;;;;;;5090803;28;20069;-66
2021/10/06 05:36:26;;;;;;;6.85;3.72;;;26.70;56.00;;;;;;5092254;28;20077;-62
2021/10/06 05:38:53;;;;;;;12.05;4.07;;;26.60;56.00;;;;;;5072903;28;20081;-63
2021/10/06 05:41:19;;;;;;;8.52;4.20;;;26.60;56.20;;;;;;5090860;28;20163;-63
2021/10/06 05:43:45;;;;;;;9.57;4.10;;;26.50;56.40;;;;;;5074538;28;20213;-63
2021/10/06 05:46:12;;;;;;;10.75;4.05;;;26.50;56.50;;;;;;5090262;28;20105;-63
2021/10/06 05:48:38;;;;;;;8.13;3.72;;;26.50;56.50;;;;;;5073513;28;20071;-63
2021/10/06 05:51:04;;;;;;;10.95;4.03;;;26.40;56.70;;;;;;5090715;28;20088;-61
2021/10/06 05:53:31;;;;;;;9.95;4.20;;;26.50;56.60;;;;;;5087276;28;20172;-64
2021/10/06 05:55:57;;;;;;;15.57;4.30;;;26.50;56.50;;;;;;5087527;28;20069;-60
2021/10/06 05:58:23;;;;;;;12.18;4.80;;;26.40;56.70;;;;;;5088048;28;20072;-62
2021/10/06 06:00:50;;;;;;;9.30;3.83;;;26.50;56.60;;;;;;5088591;28;20149;-60
2021/10/06 06:03:16;;;;;;;9.07;3.88;;;26.40;56.60;;;;;;5088643;28;20522;-63
2021/10/06 06:05:43;;;;;;;9.55;3.70;;;26.50;56.40;;;;;;5090518;28;20564;-62
2021/10/06 06:08:10;;;;;;;8.20;3.72;;;26.40;56.40;;;;;;5087872;28;20076;-62
2021/10/06 06:10:37;;;;;;;10.68;3.95;;;26.40;56.30;;;;;;5087906;28;20096;-62
2021/10/06 06:13:03;;;;;;;9.88;3.80;;;27.30;54.70;;;;;;5087103;28;20085;-61
2021/10/06 06:15:30;;;;;;;10.60;4.28;;;27.60;53.60;;;;;;5071932;28;20155;-64
2021/10/06 06:17:56;;;;;;;9.63;4.18;;;28.30;52.10;;;;;;5055211;28;20076;-62
2021/10/06 06:20:23;;;;;;;11.80;3.50;;;28.30;51.30;;;;;;5071985;28;20089;-66
2021/10/06 06:22:51;;;;;;;14.45;4.15;;;28.10;52.00;;;;;;5087981;28;20160;-65
2021/10/06 06:25:18;;;;;;;8.25;3.53;;;27.90;52.10;;;;;;5092292;28;20069;-63
2021/10/06 06:27:44;;;;;;;10.55;4.60;;;28.30;51.70;;;;;;5087999;28;20107;-63
2021/10/06 06:30:11;;;;;;;8.93;3.63;;;28.50;51.10;;;;;;5087287;28;20661;-63
2021/10/06 06:32:38;;;;;;;13.07;4.68;;;29.00;50.50;;;;;;5088987;28;20073;-66
2021/10/06 06:35:06;;;;;;;11.95;4.10;;;29.10;49.50;;;;;;5085694;28;20072;-63
2021/10/06 06:37:32;;;;;;;9.70;3.80;;;29.20;49.90;;;;;;5086954;28;20506;-64
2021/10/06 06:39:59;;;;;;;13.75;4.15;;;29.50;48.70;;;;;;5085029;28;20081;-64
2021/10/06 06:42:26;;;;;;;9.30;4.18;;;29.20;49.00;;;;;;5087808;28;20558;-63
2021/10/06 06:44:52;;;;;;;9.23;4.28;;;29.10;49.50;;;;;;5088772;28;20159;-64
2021/10/06 06:47:18;;;;;;;11.25;3.80;;;28.80;49.90;;;;;;5088773;28;20096;-65
2021/10/06 06:49:45;;;;;;;11.65;4.30;;;28.70;50.40;;;;;;5087298;28;20227;-63
2021/10/06 06:52:11;;;;;;;10.40;3.95;;;28.40;50.90;;;;;;5088054;28;20076;-63
2021/10/06 06:54:38;;;;;;;8.85;4.00;;;28.10;52.00;;;;;;5085361;28;20534;-63
2021/10/06 06:57:04;;;;;;;11.30;4.63;;;28.50;51.40;;;;;;5087613;28;20433;-67
2021/10/06 06:59:32;;;;;;;12.90;3.95;;;28.50;51.10;;;;;;5085861;28;20097;-64
2021/10/06 07:01:58;;;;;;;11.25;4.00;;;28.50;51.30;;;;;;5084929;28;20126;-63
2021/10/06 07:04:25;;;;;;;12.90;4.68;;;28.80;51.00;;;;;;5087317;28;20064;-66
2021/10/06 07:06:53;;;;;;;9.55;4.20;;;28.40;51.00;;;;;;5087564;28;20546;-63
2021/10/06 07:09:24;;;;;;;8.32;3.90;;;28.30;51.90;;;;;;5088515;28;20114;-62
2021/10/06 07:11:51;;;;;;;10.10;4.13;;;28.30;51.80;;;;;;5086702;28;20092;-63
2021/10/06 07:14:19;;;;;;;8.07;4.10;;;28.10;51.80;;;;;;5086381;28;20091;-62
2021/10/06 07:16:45;;;;;;;10.18;4.40;;;28.10;52.20;;;;;;5089161;28;20581;-64
2021/10/06 07:19:12;;;;;;;9.77;5.07;;;27.60;52.90;;;;;;5087402;28;20092;-63
2021/10/06 07:21:43;;;;;;;10.65;5.30;;;27.60;53.10;;;;;;5086683;28;20072;-64
2021/10/06 07:24:15;;;;;;;8.93;4.78;;;27.30;53.80;;;;;;5084312;28;20537;-64
2021/10/06 07:26:44;;;;;;;10.00;4.80;;;27.20;54.60;;;;;;5087393;28;20080;-65
2021/10/06 07:29:11;;;;;;;9.35;4.30;;;27.20;55.00;;;;;;5086825;28;20433;-63
2021/10/06 07:31:37;;;;;;;14.55;4.60;;;27.20;55.00;;;;;;5086740;28;20103;-64
2021/10/06 07:34:03;;;;;;;10.82;4.35;;;27.30;55.10;;;;;;5086593;28;20435;-65
2021/10/06 07:36:30;;;;;;;11.02;3.95;;;27.20;54.90;;;;;;5087292;28;20073;-63
2021/10/06 07:38:57;;;;;;;9.65;4.25;;;27.20;55.40;;;;;;5085772;28;20654;-63
2021/10/06 07:41:24;;;;;;;9.35;4.10;;;27.10;55.00;;;;;;5086443;28;20079;-65
2021/10/06 07:43:50;;;;;;;10.43;3.83;;;26.90;55.40;;;;;;5088499;28;20491;-67
2021/10/06 07:46:17;;;;;;;10.40;4.32;;;26.80;55.70;;;;;;5087209;28;20088;-67
2021/10/06 07:48:43;;;;;;;13.55;4.03;;;26.60;56.30;;;;;;5087844;28;20123;-65
2021/10/06 07:51:10;;;;;;;10.35;4.00;;;26.50;56.40;;;;;;5087420;28;20099;-66
2021/10/06 07:53:36;;;;;;;8.02;3.70;;;26.60;56.20;;;;;;5086706;28;20126;-65
2021/10/06 07:56:02;;;;;;;10.27;4.20;;;26.50;55.90;;;;;;5085887;28;20429;-66
2021/10/06 07:58:29;;;;;;;8.85;3.83;;;26.40;56.20;;;;;;5085800;28;20079;-66
2021/10/06 08:00:55;;;;;;;9.55;4.28;;;26.50;56.00;;;;;;5087395;28;20167;-65
2021/10/06 08:03:22;;;;;;;7.70;4.35;;;26.40;55.90;;;;;;5088608;28;20087;-66
2021/10/06 08:05:48;;;;;;;10.18;4.78;;;26.10;56.50;;;;;;5088016;28;20503;-65
2021/10/06 08:08:15;;;;;;;8.10;3.95;;;26.00;57.10;;;;;;5086395;28;20072;-65
2021/10/06 08:10:42;;;;;;;10.85;4.43;;;25.90;57.20;;;;;;5087183;28;20145;-65
2021/10/06 08:13:08;;;;;;;8.02;4.22;;;25.80;57.30;;;;;;5089142;28;20077;-66
2021/10/06 08:15:36;;;;;;;8.75;3.65;;;25.80;57.40;;;;;;5090767;28;20072;-65
2021/10/06 08:18:03;;;;;;;8.88;3.83;;;26.10;57.30;;;;;;5090563;28;20087;-65
2021/10/06 08:20:33;;;;;;;10.70;3.97;;;26.20;56.60;;;;;;5092323;28;20441;-64
2021/10/06 08:23:01;;;;;;;9.43;3.83;;;26.10;56.70;;;;;;5074552;28;20076;-64
2021/10/06 08:25:27;;;;;;;9.80;3.75;;;26.10;56.90;;;;;;5075244;28;20083;-64
2021/10/06 08:27:54;;;;;;;10.98;3.97;;;26.00;56.90;;;;;;5092073;28;20121;-67
2021/10/06 08:30:22;;;;;;;8.45;4.00;;;26.00;57.20;;;;;;5090625;28;20115;-64
2021/10/06 08:32:49;;;;;;;9.73;3.90;;;26.00;57.00;;;;;;5088956;28;20103;-64
2021/10/06 08:35:16;;;;;;;10.82;4.43;;;25.80;57.40;;;;;;5091403;28;20076;-66
2021/10/06 08:37:43;;;;;;;8.70;3.45;;;25.80;57.70;;;;;;5089573;28;20556;-64
2021/10/06 08:40:10;;;;;;;7.07;3.50;;;26.00;57.80;;;;;;5090338;28;20183;-64
2021/10/06 08:42:37;;;;;;;6.75;3.40;;;25.90;57.50;;;;;;5089489;28;20153;-63
2021/10/06 08:45:07;;;;;;;9.40;4.28;;;26.00;57.70;;;;;;5089301;28;20111;-65
2021/10/06 08:47:40;;;;;;;7.43;3.80;;;25.90;57.50;;;;;;5073729;28;20092;-66
2021/10/06 08:50:14;;;;;;;9.70;3.55;;;25.70;57.90;;;;;;5073392;28;20088;-64
2021/10/06 08:52:41;;;;;;;7.20;3.60;;;25.70;58.40;;;;;;5089398;28;20091;-65
2021/10/06 08:55:10;;;;;;;6.22;3.67;;;25.70;58.30;;;;;;5090692;28;20080;-64
2021/10/06 08:57:37;;;;;;;9.18;3.80;;;25.70;58.50;;;;;;5089953;28;20470;-65
2021/10/06 09:00:05;;;;;;;10.68;3.78;;;25.70;58.10;;;;;;5091296;28;20449;-63
2021/10/06 09:02:39;;;;;;;11.13;4.55;;;25.70;58.30;;;;;;5090857;28;20080;-67
2021/10/06 09:05:07;;;;;;;7.10;3.92;;;25.70;58.20;;;;;;5092076;28;20201;-65
2021/10/06 09:07:59;;;;;;;8.85;3.97;;;25.70;58.20;;;;;;5089436;28;20115;-64
2021/10/06 09:10:27;;;;;;;12.88;3.97;;;25.70;58.40;;;;;;5088173;28;20092;-65
2021/10/06 09:12:56;;;;;;;12.68;4.20;;;25.60;58.30;;;;;;5090117;28;20065;-66
2021/10/06 09:15:22;;;;;;;7.85;3.90;;;25.60;58.30;;;;;;5088319;28;20088;-65
2021/10/06 09:17:58;;;;;;;12.15;3.90;;;25.70;58.20;;;;;;5071653;28;20073;-65
2021/10/06 09:20:37;;;;;;;6.32;3.72;;;25.70;58.20;;;;;;5088323;28;20118;-64
2021/10/06 09:23:09;;;;;;;9.27;4.32;;;25.70;58.30;;;;;;5086939;28;20076;-65
2021/10/06 09:25:52;;;;;;;10.00;4.20;;;25.60;58.40;;;;;;5088614;28;20561;-64
2021/10/06 09:28:23;;;;;;;13.57;4.22;;;25.60;58.50;;;;;;5089318;28;20483;-63
2021/10/06 09:30:57;;;;;;;10.55;4.13;;;25.50;58.50;;;;;;5088136;28;20619;-66
2021/10/06 09:33:24;;;;;;;7.25;3.83;;;25.40;58.80;;;;;;5088402;28;20073;-65
2021/10/06 09:36:17;;;;;;;7.60;4.07;;;25.30;59.00;;;;;;5089507;28;20111;-65
2021/10/06 09:38:54;;;;;;;8.30;3.83;;;25.30;59.20;;;;;;5073644;28;20538;-65
2021/10/06 09:41:46;;;;;;;9.43;3.95;;;25.20;59.30;;;;;;5089361;28;20111;-65
2021/10/06 09:44:21;;;;;;;12.07;4.15;;;25.10;59.60;;;;;;5087611;28;20110;-65
2021/10/06 09:47:02;;;;;;;9.02;4.32;;;25.10;59.90;;;;;;5088177;28;20096;-65
2021/10/06 09:49:37;;;;;;;14.80;4.35;;;25.10;59.90;;;;;;5071912;28;20441;-66
2021/10/06 09:52:20;;;;;;;6.25;3.58;;;25.00;60.00;;;;;;5072011;28;20169;-67
2021/10/06 09:54:52;;;;;;;7.90;3.80;;;25.10;60.20;;;;;;5089046;28;20065;-67
2021/10/06 09:57:32;;;;;;;12.95;4.60;;;25.00;60.60;;;;;;5090891;28;20120;-65
2021/10/06 10:00:07;;;;;;;11.73;4.65;;;25.00;60.30;;;;;;5088256;28;20073;-64
2021/10/06 10:02:35;;;;;;;7.88;3.95;;;25.00;60.00;;;;;;5090259;28;20131;-64
2021/10/06 10:05:03;;;;;;;10.00;3.78;;;25.00;60.10;;;;;;5088879;28;20119;-64
2021/10/06 10:07:29;;;;;;;14.05;4.40;;;25.00;60.50;;;;;;5088369;28;20069;-65
2021/10/06 10:09:56;;;;;;;7.07;3.78;;;25.00;60.30;;;;;;5089564;28;20534;-66
2021/10/06 10:12:24;;;;;;;7.18;3.75;;;24.90;60.50;;;;;;5090021;28;20081;-66
2021/10/06 10:14:52;;;;;;;11.55;3.80;;;24.90;60.30;;;;;;5088044;28;20133;-65
2021/10/06 10:17:19;;;;;;;7.07;3.40;;;24.80;60.50;;;;;;5085851;28;20163;-65
2021/10/06 10:19:54;;;;;;;10.60;3.65;;;24.80;60.70;;;;;;5072520;28;20081;-64
2021/10/06 10:22:22;;;;;;;9.20;4.13;;;24.80;60.70;;;;;;5086253;28;20096;-65
2021/10/06 10:24:51;;;;;;;8.20;3.70;;;24.80;60.80;;;;;;5075750;28;20155;-64
2021/10/06 10:27:22;;;;;;;7.72;4.18;;;24.80;61.10;;;;;;5087105;28;20115;-65
2021/10/06 10:30:04;;;;;;;10.35;4.03;;;24.70;60.90;;;;;;5086719;28;20108;-64
2021/10/06 10:32:46;;;;;;;6.32;3.47;;;24.70;61.30;;;;;;5086817;28;20076;-65
2021/10/06 10:35:14;;;;;;;6.15;3.17;;;24.60;61.30;;;;;;5088538;28;20161;-65
2021/10/06 10:37:47;;;;;;;8.45;3.70;;;24.70;61.50;;;;;;5089238;28;20081;-64
2021/10/06 10:40:35;;;;;;;8.35;3.95;;;24.70;61.10;;;;;;5088796;28;20626;-65
2021/10/06 10:43:21;;;;;;;11.20;3.63;;;24.60;61.10;;;;;;5088492;28;20081;-65
2021/10/06 10:46:00;;;;;;;5.50;3.15;;;24.50;61.30;;;;;;5086442;28;20092;-65
2021/10/06 10:48:28;;;;;;;6.57;3.63;;;24.50;61.40;;;;;;5087827;28;20080;-65
2021/10/06 10:50:54;;;;;;;6.63;3.30;;;24.50;61.50;;;;;;5087391;28;20087;-64
2021/10/06 10:53:41;;;;;;;6.95;3.05;;;24.50;61.50;;;;;;5088960;28;20557;-67
2021/10/06 10:56:11;;;;;;;6.60;3.78;;;24.50;61.60;;;;;;5086710;28;20209;-67
2021/10/06 10:58:42;;;;;;;7.05;3.63;;;24.60;61.00;;;;;;5090149;28;20534;-65
2021/10/06 11:01:38;;;;;;;6.68;3.03;;;24.50;61.50;;;;;;5089240;28;20168;-65
2021/10/06 11:04:24;;;;;;;7.35;3.30;;;24.50;61.50;;;;;;5088090;28;20111;-66
2021/10/06 11:07:13;;;;;;;6.22;3.58;;;24.60;61.10;;;;;;5088061;28;20141;-64
2021/10/06 11:10:02;;;;;;;7.22;3.22;;;24.50;61.00;;;;;;5089811;28;20084;-67
2021/10/06 11:12:34;;;;;;;7.53;3.08;;;24.50;61.00;;;;;;5088182;28;20103;-69
2021/10/06 11:15:16;;;;;;;8.32;3.70;;;24.50;61.20;;;;;;5086938;28;20163;-68
2021/10/06 11:18:10;;;;;;;7.53;2.97;;;24.50;61.40;;;;;;5086999;28;20069;-65
2021/10/06 11:20:46;;;;;;;8.43;3.40;;;24.50;61.20;;;;;;5088584;28;20167;-65
2021/10/06 11:23:35;;;;;;;9.05;3.85;;;24.60;61.20;;;;;;5086980;28;20438;-65
2021/10/06 11:26:11;;;;;;;7.40;3.08;;;24.60;61.30;;;;;;5088308;28;20437;-66
2021/10/06 11:28:44;;;;;;;10.38;3.58;;;24.50;61.70;;;;;;5087285;28;20080;-64
2021/10/06 11:31:12;;;;;;;7.28;3.28;;;24.60;61.80;;;;;;5088146;28;20112;-64
2021/10/06 11:33:39;;;;;;;9.18;3.20;;;24.50;62.20;;;;;;5086083;28;20535;-67
2021/10/06 11:36:24;;;;;;;7.22;3.03;;;24.40;62.50;;;;;;5088239;28;20084;-62
2021/10/06 11:38:57;;;;;;;6.40;3.42;;;24.40;62.90;;;;;;5070400;28;20065;-67
2021/10/06 11:41:24;;;;;;;6.20;3.30;;;24.40;63.00;;;;;;5087416;28;20084;-65
2021/10/06 11:43:53;;;;;;;10.15;3.65;;;24.30;62.80;;;;;;5087374;28;20072;-65
2021/10/06 11:46:37;;;;;;;9.38;3.40;;;24.30;63.20;;;;;;5088807;28;20092;-67
2021/10/06 11:49:08;;;;;;;6.75;3.20;;;24.30;62.90;;;;;;5092088;28;20076;-65
2021/10/06 11:51:44;;;;;;;7.60;3.05;;;24.30;63.00;;;;;;5092121;28;20088;-65
2021/10/06 11:54:11;;;;;;;6.45;2.70;;;24.20;63.20;;;;;;5092531;28;20076;-65
2021/10/06 11:56:41;;;;;;;9.52;3.88;;;24.20;63.20;;;;;;5076118;28;20517;-70
2021/10/06 11:59:13;;;;;;;6.30;2.92;;;24.10;63.40;;;;;;5079261;28;20111;-71
2021/10/06 12:01:49;;;;;;;6.82;3.25;;;24.10;63.70;;;;;;5091670;28;20083;-66
2021/10/06 12:04:17;;;;;;;9.82;3.40;;;24.20;63.70;;;;;;5091397;28;20518;-66
2021/10/06 12:06:46;;;;;;;10.73;3.35;;;24.20;63.20;;;;;;5092417;28;20076;-67
2021/10/06 12:09:14;;;;;;;4.53;2.60;;;24.20;63.30;;;;;;5091603;28;20120;-68
2021/10/06 12:11:45;;;;;;;7.75;2.80;;;24.20;62.70;;;;;;5091352;28;20081;-65
2021/10/06 12:14:34;;;;;;;6.10;2.90;;;24.30;62.70;;;;;;5090684;28;20125;-67
2021/10/06 12:17:10;;;;;;;7.05;3.15;;;24.30;62.90;;;;;;5089424;28;20426;-66
2021/10/06 12:19:38;;;;;;;12.63;3.25;;;24.30;62.60;;;;;;5090610;28;20179;-69
2021/10/06 12:22:06;;;;;;;9.48;2.92;;;24.30;61.60;;;;;;5074839;28;20069;-65
2021/10/06 12:24:33;;;;;;;5.35;2.75;;;24.20;61.70;;;;;;5075063;28;20081;-65
2021/10/06 12:27:00;;;;;;;4.03;2.50;;;24.20;62.10;;;;;;5093321;28;20163;-68
2021/10/06 12:29:31;;;;;;;8.60;2.50;;;24.20;61.80;;;;;;5074325;28;20562;-66
2021/10/06 12:32:30;;;;;;;7.32;3.00;;;24.20;61.10;;;;;;5090088;28;20088;-65
2021/10/06 12:35:10;;;;;;;8.05;2.88;;;24.20;60.90;;;;;;4992276;28;20600;-66
2021/10/06 12:37:54;;;;;;;7.43;2.92;;;24.10;61.20;;;;;;4991606;28;20070;-63
2021/10/06 12:40:55;;;;;;;7.95;2.55;;;24.10;60.70;;;;;;4992568;28;20113;-65
2021/10/06 12:43:29;;;;;;;6.07;3.13;;;24.10;61.20;;;;;;4963337;28;20083;-65
2021/10/06 12:46:04;;;;;;;9.55;3.25;;;24.10;60.60;;;;;;4962069;28;20107;-66
2021/10/06 12:48:36;;;;;;;7.30;3.28;;;24.10;60.70;;;;;;4947289;28;20079;-65
2021/10/06 12:51:03;;;;;;;7.68;2.60;;;24.10;60.60;;;;;;4957236;28;20125;-65
2021/10/06 12:53:29;;;;;;;6.50;2.90;;;24.10;60.00;;;;;;4947730;28;20079;-67